sensor_id;sensor_type;location;lat;lon;timestamp;pressure;altitude;pressure_sealevel;temperature
80246;BMP280;69558;39.208;-77.226;2023-10-13T00:00:33;99726.06;;;24.55
80246;BMP280;69558;39.208;-77.226;2023-10-13T00:03:06;99738.59;;;24.59
80246;BMP280;69558;39.208;-77.226;2023-10-13T00:05:41;99736.25;;;24.63
80246;BMP280;69558;39.208;-77.226;2023-10-13T00:08:09;99746.38;;;24.66
80246;BMP280;69558;39.208;-77.226;2023-10-13T00:10:36;99753.06;;;24.69
80246;BMP280;69558;39.208;-77.226;2023-10-13T00:13:04;99744.47;;;24.78
80246;BMP280;69558;39.208;-77.226;2023-10-13T00:15:42;99750.63;;;24.84
80246;BMP280;69558;39.208;-77.226;2023-10-13T00:18:24;99746.13;;;24.84
80246;BMP280;69558;39.208;-77.226;2023-10-13T00:20:52;99737.56;;;24.82
80246;BMP280;69558;39.208;-77.226;2023-10-13T00:23:22;99736.34;;;24.90
80246;BMP280;69558;39.208;-77.226;2023-10-13T00:25:56;99736.41;;;24.73
80246;BMP280;69558;39.208;-77.226;2023-10-13T00:28:26;99740.59;;;24.52
80246;BMP280;69558;39.208;-77.226;2023-10-13T00:31:01;99750.59;;;24.28
80246;BMP280;69558;39.208;-77.226;2023-10-13T00:33:38;99763.16;;;24.05
80246;BMP280;69558;39.208;-77.226;2023-10-13T00:36:05;99769.75;;;24.02
80246;BMP280;69558;39.208;-77.226;2023-10-13T00:38:34;99771.84;;;24.00
80246;BMP280;69558;39.208;-77.226;2023-10-13T00:41:01;99779.56;;;24.02
80246;BMP280;69558;39.208;-77.226;2023-10-13T00:43:47;99783.44;;;24.11
80246;BMP280;69558;39.208;-77.226;2023-10-13T00:46:33;99781.34;;;24.13
80246;BMP280;69558;39.208;-77.226;2023-10-13T00:49:01;99773.53;;;24.23
80246;BMP280;69558;39.208;-77.226;2023-10-13T00:51:30;99768.91;;;24.30
80246;BMP280;69558;39.208;-77.226;2023-10-13T00:54:07;99766.06;;;24.37
80246;BMP280;69558;39.208;-77.226;2023-10-13T00:56:41;99757.97;;;24.43
80246;BMP280;69558;39.208;-77.226;2023-10-13T00:59:30;99778.44;;;24.48
80246;BMP280;69558;39.208;-77.226;2023-10-13T01:02:08;99787.88;;;24.55
80246;BMP280;69558;39.208;-77.226;2023-10-13T01:04:52;99797.25;;;24.63
80246;BMP280;69558;39.208;-77.226;2023-10-13T01:07:19;99803.44;;;24.69
80246;BMP280;69558;39.208;-77.226;2023-10-13T01:09:48;99805.38;;;24.73
80246;BMP280;69558;39.208;-77.226;2023-10-13T01:12:15;99801.41;;;24.76
80246;BMP280;69558;39.208;-77.226;2023-10-13T01:14:42;99797.72;;;24.77
80246;BMP280;69558;39.208;-77.226;2023-10-13T01:17:09;99808.66;;;24.80
80246;BMP280;69558;39.208;-77.226;2023-10-13T01:19:37;99819.59;;;24.84
80246;BMP280;69558;39.208;-77.226;2023-10-13T01:22:14;99825.22;;;24.71
80246;BMP280;69558;39.208;-77.226;2023-10-13T01:24:41;99838.16;;;24.50
80246;BMP280;69558;39.208;-77.226;2023-10-13T01:27:07;99831.94;;;24.28
80246;BMP280;69558;39.208;-77.226;2023-10-13T01:29:47;99848.44;;;24.02
80246;BMP280;69558;39.208;-77.226;2023-10-13T01:32:17;99835.56;;;23.93
80246;BMP280;69558;39.208;-77.226;2023-10-13T01:34:43;99837.28;;;24.00
80246;BMP280;69558;39.208;-77.226;2023-10-13T01:37:12;99836.53;;;24.04
80246;BMP280;69558;39.208;-77.226;2023-10-13T01:39:38;99828.34;;;24.06
80246;BMP280;69558;39.208;-77.226;2023-10-13T01:42:04;99829.25;;;24.11
80246;BMP280;69558;39.208;-77.226;2023-10-13T01:44:31;99816.59;;;24.13
80246;BMP280;69558;39.208;-77.226;2023-10-13T01:47:01;99817.78;;;24.22
80246;BMP280;69558;39.208;-77.226;2023-10-13T01:49:38;99809.41;;;24.25
80246;BMP280;69558;39.208;-77.226;2023-10-13T01:52:15;99816.91;;;24.34
80246;BMP280;69558;39.208;-77.226;2023-10-13T01:54:47;99819.66;;;24.39
80246;BMP280;69558;39.208;-77.226;2023-10-13T01:57:16;99808.16;;;24.33
80246;BMP280;69558;39.208;-77.226;2023-10-13T01:59:48;99834.47;;;24.51
80246;BMP280;69558;39.208;-77.226;2023-10-13T02:02:15;99840.34;;;24.53
80246;BMP280;69558;39.208;-77.226;2023-10-13T02:04:45;99832.22;;;24.60
80246;BMP280;69558;39.208;-77.226;2023-10-13T02:07:15;99836.78;;;24.64
80246;BMP280;69558;39.208;-77.226;2023-10-13T02:09:43;99819.38;;;24.69
80246;BMP280;69558;39.208;-77.226;2023-10-13T02:12:11;99822.31;;;24.72
80246;BMP280;69558;39.208;-77.226;2023-10-13T02:14:37;99821.06;;;24.75
80246;BMP280;69558;39.208;-77.226;2023-10-13T02:17:03;99818.84;;;24.72
80246;BMP280;69558;39.208;-77.226;2023-10-13T02:19:39;99835.19;;;24.80
80246;BMP280;69558;39.208;-77.226;2023-10-13T02:22:11;99834.56;;;24.73
80246;BMP280;69558;39.208;-77.226;2023-10-13T02:24:37;99829.97;;;24.52
80246;BMP280;69558;39.208;-77.226;2023-10-13T02:27:07;99836.28;;;24.34
80246;BMP280;69558;39.208;-77.226;2023-10-13T02:29:41;99845.41;;;24.10
80246;BMP280;69558;39.208;-77.226;2023-10-13T02:32:07;99849.06;;;23.92
80246;BMP280;69558;39.208;-77.226;2023-10-13T02:34:44;99855.38;;;23.91
80246;BMP280;69558;39.208;-77.226;2023-10-13T02:37:12;99859.97;;;23.96
80246;BMP280;69558;39.208;-77.226;2023-10-13T02:39:39;99855.00;;;23.99
80246;BMP280;69558;39.208;-77.226;2023-10-13T02:42:07;99855.34;;;24.03
80246;BMP280;69558;39.208;-77.226;2023-10-13T02:44:36;99860.28;;;24.11
80246;BMP280;69558;39.208;-77.226;2023-10-13T02:47:06;99854.03;;;24.17
80246;BMP280;69558;39.208;-77.226;2023-10-13T02:49:34;99850.66;;;24.21
80246;BMP280;69558;39.208;-77.226;2023-10-13T02:52:00;99851.53;;;24.27
80246;BMP280;69558;39.208;-77.226;2023-10-13T02:54:35;99837.25;;;24.28
80246;BMP280;69558;39.208;-77.226;2023-10-13T02:57:06;99835.00;;;24.37
80246;BMP280;69558;39.208;-77.226;2023-10-13T02:59:32;99830.28;;;24.39
80246;BMP280;69558;39.208;-77.226;2023-10-13T03:02:27;99831.47;;;24.48
80246;BMP280;69558;39.208;-77.226;2023-10-13T03:04:55;99832.38;;;24.53
80246;BMP280;69558;39.208;-77.226;2023-10-13T03:07:37;99817.19;;;24.49
80246;BMP280;69558;39.208;-77.226;2023-10-13T03:10:08;99829.31;;;24.61
80246;BMP280;69558;39.208;-77.226;2023-10-13T03:12:41;99820.56;;;24.61
80246;BMP280;69558;39.208;-77.226;2023-10-13T03:15:13;99829.63;;;24.65
80246;BMP280;69558;39.208;-77.226;2023-10-13T03:17:42;99829.63;;;24.65
80246;BMP280;69558;39.208;-77.226;2023-10-13T03:20:15;99832.44;;;24.75
80246;BMP280;69558;39.208;-77.226;2023-10-13T03:22:46;99838.97;;;24.68
80246;BMP280;69558;39.208;-77.226;2023-10-13T03:25:13;99840.03;;;24.50
80246;BMP280;69558;39.208;-77.226;2023-10-13T03:27:59;99845.44;;;24.26
80246;BMP280;69558;39.208;-77.226;2023-10-13T03:30:25;99834.50;;;24.06
80246;BMP280;69558;39.208;-77.226;2023-10-13T03:33:02;99835.56;;;23.93
80246;BMP280;69558;39.208;-77.226;2023-10-13T03:35:36;99827.25;;;23.90
80246;BMP280;69558;39.208;-77.226;2023-10-13T03:38:08;99820.72;;;23.92
80246;BMP280;69558;39.208;-77.226;2023-10-13T03:40:49;99824.53;;;23.97
80246;BMP280;69558;39.208;-77.226;2023-10-13T03:43:34;99836.00;;;24.02
80246;BMP280;69558;39.208;-77.226;2023-10-13T03:46:11;99842.44;;;24.06
80246;BMP280;69558;39.208;-77.226;2023-10-13T03:48:37;99833.53;;;24.12
80246;BMP280;69558;39.208;-77.226;2023-10-13T03:51:25;99842.38;;;24.18
80246;BMP280;69558;39.208;-77.226;2023-10-13T03:53:56;99849.59;;;24.22
80246;BMP280;69558;39.208;-77.226;2023-10-13T03:56:28;99844.41;;;24.27
80246;BMP280;69558;39.208;-77.226;2023-10-13T03:59:04;99838.47;;;24.20
80246;BMP280;69558;39.208;-77.226;2023-10-13T04:01:32;99835.97;;;24.31
80246;BMP280;69558;39.208;-77.226;2023-10-13T04:04:11;99828.66;;;24.38
80246;BMP280;69558;39.208;-77.226;2023-10-13T04:06:38;99835.44;;;24.45
80246;BMP280;69558;39.208;-77.226;2023-10-13T04:09:16;99831.75;;;24.46
80246;BMP280;69558;39.208;-77.226;2023-10-13T04:12:02;99824.91;;;24.50
80246;BMP280;69558;39.208;-77.226;2023-10-13T04:14:33;99830.50;;;24.54
80246;BMP280;69558;39.208;-77.226;2023-10-13T04:17:38;99834.47;;;24.51
80246;BMP280;69558;39.208;-77.226;2023-10-13T04:20:11;99845.41;;;24.55
80246;BMP280;69558;39.208;-77.226;2023-10-13T04:22:39;99849.19;;;24.59
80246;BMP280;69558;39.208;-77.226;2023-10-13T04:25:19;99845.41;;;24.55
80246;BMP280;69558;39.208;-77.226;2023-10-13T04:28:13;99866.22;;;24.46
80246;BMP280;69558;39.208;-77.226;2023-10-13T04:33:26;99870.22;;;24.04
80246;BMP280;69558;39.208;-77.226;2023-10-13T04:36:08;99871.06;;;23.92
80246;BMP280;69558;39.208;-77.226;2023-10-13T04:38:59;99867.81;;;23.90
80246;BMP280;69558;39.208;-77.226;2023-10-13T04:41:32;99858.28;;;23.89
80246;BMP280;69558;39.208;-77.226;2023-10-13T04:44:12;99867.69;;;23.97
80246;BMP280;69558;39.208;-77.226;2023-10-13T04:46:58;99877.00;;;24.00
80246;BMP280;69558;39.208;-77.226;2023-10-13T04:49:28;99881.03;;;24.02
80246;BMP280;69558;39.208;-77.226;2023-10-13T04:52:06;99875.25;;;24.05
80246;BMP280;69558;39.208;-77.226;2023-10-13T04:54:36;99885.16;;;24.10
80246;BMP280;69558;39.208;-77.226;2023-10-13T04:57:24;99871.66;;;24.11
80246;BMP280;69558;39.208;-77.226;2023-10-13T05:00:01;99867.00;;;24.18
80246;BMP280;69558;39.208;-77.226;2023-10-13T05:02:42;99880.88;;;24.20
80246;BMP280;69558;39.208;-77.226;2023-10-13T05:05:10;99881.75;;;24.26
80246;BMP280;69558;39.208;-77.226;2023-10-13T05:07:45;99878.31;;;24.25
80246;BMP280;69558;39.208;-77.226;2023-10-13T05:10:30;99883.19;;;24.34
80246;BMP280;69558;39.208;-77.226;2023-10-13T05:13:15;99878.69;;;24.34
80246;BMP280;69558;39.208;-77.226;2023-10-13T05:15:59;99889.16;;;24.41
80246;BMP280;69558;39.208;-77.226;2023-10-13T05:18:44;99872.47;;;24.40
80246;BMP280;69558;39.208;-77.226;2023-10-13T05:21:29;99874.94;;;24.47
80246;BMP280;69558;39.208;-77.226;2023-10-13T05:24:13;99876.34;;;24.49
80246;BMP280;69558;39.208;-77.226;2023-10-13T05:26:58;99884.38;;;24.54
80246;BMP280;69558;39.208;-77.226;2023-10-13T05:29:44;99880.88;;;24.54
80246;BMP280;69558;39.208;-77.226;2023-10-13T05:32:29;99875.09;;;24.40
80246;BMP280;69558;39.208;-77.226;2023-10-13T05:35:14;99883.72;;;24.19
80246;BMP280;69558;39.208;-77.226;2023-10-13T05:37:58;99874.84;;;23.97
80246;BMP280;69558;39.208;-77.226;2023-10-13T05:43:37;99878.00;;;23.82
80246;BMP280;69558;39.208;-77.226;2023-10-13T05:46:21;99878.09;;;23.87
80246;BMP280;69558;39.208;-77.226;2023-10-13T05:48:51;99881.31;;;23.89
80246;BMP280;69558;39.208;-77.226;2023-10-13T05:51:24;99876.00;;;23.89
80246;BMP280;69558;39.208;-77.226;2023-10-13T05:54:09;99882.81;;;23.97
80246;BMP280;69558;39.208;-77.226;2023-10-13T05:56:43;99881.84;;;24.03
80246;BMP280;69558;39.208;-77.226;2023-10-13T05:59:28;99871.59;;;24.06
80246;BMP280;69558;39.208;-77.226;2023-10-13T06:02:14;99859.69;;;24.09
80246;BMP280;69558;39.208;-77.226;2023-10-13T06:05:01;99876.03;;;24.17
80246;BMP280;69558;39.208;-77.226;2023-10-13T06:07:45;99886.28;;;24.25
80246;BMP280;69558;39.208;-77.226;2023-10-13T06:10:29;99885.03;;;24.33
80246;BMP280;69558;39.208;-77.226;2023-10-13T06:13:13;99892.06;;;24.39
80246;BMP280;69558;39.208;-77.226;2023-10-13T06:15:58;99866.25;;;24.35
80246;BMP280;69558;39.208;-77.226;2023-10-13T06:18:43;99883.47;;;24.49
80246;BMP280;69558;39.208;-77.226;2023-10-13T06:21:28;99881.94;;;24.53
80246;BMP280;69558;39.208;-77.226;2023-10-13T06:24:12;99891.28;;;24.55
80246;BMP280;69558;39.208;-77.226;2023-10-13T06:26:56;99893.69;;;24.57
80246;BMP280;69558;39.208;-77.226;2023-10-13T06:29:42;99895.06;;;24.59
80246;BMP280;69558;39.208;-77.226;2023-10-13T06:32:12;99897.94;;;24.58
80246;BMP280;69558;39.208;-77.226;2023-10-13T06:34:38;99894.47;;;24.41
80246;BMP280;69558;39.208;-77.226;2023-10-13T06:37:16;99895.63;;;24.16
80246;BMP280;69558;39.208;-77.226;2023-10-13T06:39:50;99896.94;;;23.90
80246;BMP280;69558;39.208;-77.226;2023-10-13T06:42:16;99897.56;;;23.81
80246;BMP280;69558;39.208;-77.226;2023-10-13T06:44:47;99899.63;;;23.79
80246;BMP280;69558;39.208;-77.226;2023-10-13T06:47:13;99889.38;;;23.82
80246;BMP280;69558;39.208;-77.226;2023-10-13T06:49:42;99870.38;;;23.85
80246;BMP280;69558;39.208;-77.226;2023-10-13T06:52:12;99865.97;;;23.91
80246;BMP280;69558;39.208;-77.226;2023-10-13T06:54:38;99875.06;;;23.95
80246;BMP280;69558;39.208;-77.226;2023-10-13T06:57:05;99874.94;;;24.02
80246;BMP280;69558;39.208;-77.226;2023-10-13T06:59:41;99871.59;;;24.06
80246;BMP280;69558;39.208;-77.226;2023-10-13T07:02:07;99869.81;;;24.12
80246;BMP280;69558;39.208;-77.226;2023-10-13T07:04:47;99860.03;;;24.12
80246;BMP280;69558;39.208;-77.226;2023-10-13T07:07:13;99858.03;;;24.19
80246;BMP280;69558;39.208;-77.226;2023-10-13T07:09:44;99862.97;;;24.27
80246;BMP280;69558;39.208;-77.226;2023-10-13T07:12:21;99857.19;;;24.31
80246;BMP280;69558;39.208;-77.226;2023-10-13T07:14:53;99844.47;;;24.33
80246;BMP280;69558;39.208;-77.226;2023-10-13T07:17:38;99846.97;;;24.39
80246;BMP280;69558;39.208;-77.226;2023-10-13T07:20:11;99848.91;;;24.44
80246;BMP280;69558;39.208;-77.226;2023-10-13T07:22:42;99854.28;;;24.49
80246;BMP280;69558;39.208;-77.226;2023-10-13T07:25:23;99860.97;;;24.51
80246;BMP280;69558;39.208;-77.226;2023-10-13T07:27:52;99850.38;;;24.51
80246;BMP280;69558;39.208;-77.226;2023-10-13T07:30:19;99852.22;;;24.51
80246;BMP280;69558;39.208;-77.226;2023-10-13T07:32:52;99872.22;;;24.58
80246;BMP280;69558;39.208;-77.226;2023-10-13T07:35:19;99868.28;;;24.61
80246;BMP280;69558;39.208;-77.226;2023-10-13T07:37:48;99880.09;;;24.53
80246;BMP280;69558;39.208;-77.226;2023-10-13T07:40:17;99877.09;;;24.33
80246;BMP280;69558;39.208;-77.226;2023-10-13T07:42:54;99878.00;;;24.10
80246;BMP280;69558;39.208;-77.226;2023-10-13T07:45:37;99873.59;;;23.87
80246;BMP280;69558;39.208;-77.226;2023-10-13T07:48:06;99874.75;;;23.80
80246;BMP280;69558;39.208;-77.226;2023-10-13T07:50:43;99866.47;;;23.76
80246;BMP280;69558;39.208;-77.226;2023-10-13T07:53:12;99863.69;;;23.83
80246;BMP280;69558;39.208;-77.226;2023-10-13T07:55:51;99859.78;;;23.85
80246;BMP280;69558;39.208;-77.226;2023-10-13T07:58:28;99871.25;;;23.91
80246;BMP280;69558;39.208;-77.226;2023-10-13T08:00:57;99871.38;;;23.96
80246;BMP280;69558;39.208;-77.226;2023-10-13T08:03:36;99880.00;;;24.03
80246;BMP280;69558;39.208;-77.226;2023-10-13T08:06:15;99878.22;;;24.09
80246;BMP280;69558;39.208;-77.226;2023-10-13T08:08:42;99874.31;;;24.11
80246;BMP280;69558;39.208;-77.226;2023-10-13T08:11:13;99878.69;;;24.17
80246;BMP280;69558;39.208;-77.226;2023-10-13T08:13:55;99878.69;;;24.17
80246;BMP280;69558;39.208;-77.226;2023-10-13T08:16:26;99885.19;;;24.26
80246;BMP280;69558;39.208;-77.226;2023-10-13T08:19:17;99889.47;;;24.27
80246;BMP280;69558;39.208;-77.226;2023-10-13T08:21:46;99906.84;;;24.35
80246;BMP280;69558;39.208;-77.226;2023-10-13T08:24:39;99900.94;;;24.33
80246;BMP280;69558;39.208;-77.226;2023-10-13T08:27:13;99898.97;;;24.40
80246;BMP280;69558;39.208;-77.226;2023-10-13T08:29:57;99898.63;;;24.37
80246;BMP280;69558;39.208;-77.226;2023-10-13T08:32:28;99900.06;;;24.44
80246;BMP280;69558;39.208;-77.226;2023-10-13T08:34:59;99900.41;;;24.48
80246;BMP280;69558;39.208;-77.226;2023-10-13T08:37:26;99895.09;;;24.48
80246;BMP280;69558;39.208;-77.226;2023-10-13T08:39:53;99900.22;;;24.49
80246;BMP280;69558;39.208;-77.226;2023-10-13T08:42:36;99906.16;;;24.56
80246;BMP280;69558;39.208;-77.226;2023-10-13T08:45:16;99911.13;;;24.36
80246;BMP280;69558;39.208;-77.226;2023-10-13T08:47:56;99909.34;;;24.13
80246;BMP280;69558;39.208;-77.226;2023-10-13T08:50:45;99918.75;;;23.92
80246;BMP280;69558;39.208;-77.226;2023-10-13T08:56:06;99930.63;;;23.78
80246;BMP280;69558;39.208;-77.226;2023-10-13T08:58:47;99930.38;;;23.80
80246;BMP280;69558;39.208;-77.226;2023-10-13T09:01:29;99938.44;;;23.85
80246;BMP280;69558;39.208;-77.226;2023-10-13T09:04:17;99940.28;;;23.84
80246;BMP280;69558;39.208;-77.226;2023-10-13T09:07:06;99940.13;;;23.91
80246;BMP280;69558;39.208;-77.226;2023-10-13T09:09:51;99946.81;;;23.93
80246;BMP280;69558;39.208;-77.226;2023-10-13T09:12:21;99943.13;;;23.95
80246;BMP280;69558;39.208;-77.226;2023-10-13T09:15:04;99944.81;;;24.01
80246;BMP280;69558;39.208;-77.226;2023-10-13T09:17:45;99942.78;;;24.03
80246;BMP280;69558;39.208;-77.226;2023-10-13T09:20:30;99957.03;;;24.13
80246;BMP280;69558;39.208;-77.226;2023-10-13T09:23:14;99971.66;;;24.16
80246;BMP280;69558;39.208;-77.226;2023-10-13T09:25:51;99974.63;;;24.19
80246;BMP280;69558;39.208;-77.226;2023-10-13T09:28:24;99967.72;;;24.18
80246;BMP280;69558;39.208;-77.226;2023-10-13T09:30:53;99974.03;;;24.29
80246;BMP280;69558;39.208;-77.226;2023-10-13T09:33:29;99974.03;;;24.29
80246;BMP280;69558;39.208;-77.226;2023-10-13T09:36:13;99971.00;;;24.37
80246;BMP280;69558;39.208;-77.226;2023-10-13T09:38:42;99968.47;;;24.42
80246;BMP280;69558;39.208;-77.226;2023-10-13T09:41:37;99962.38;;;24.42
80246;BMP280;69558;39.208;-77.226;2023-10-13T09:44:03;99972.00;;;24.48
80246;BMP280;69558;39.208;-77.226;2023-10-13T09:46:30;99977.41;;;24.53
80246;BMP280;69558;39.208;-77.226;2023-10-13T09:49:11;99980.16;;;24.58
80246;BMP280;69558;39.208;-77.226;2023-10-13T09:51:41;99978.28;;;24.42
80246;BMP280;69558;39.208;-77.226;2023-10-13T09:54:31;99986.63;;;24.22
80246;BMP280;69558;39.208;-77.226;2023-10-13T09:57:15;99993.47;;;23.95
80246;BMP280;69558;39.208;-77.226;2023-10-13T10:00:00;99994.41;;;23.77
80246;BMP280;69558;39.208;-77.226;2023-10-13T10:02:34;100003.63;;;23.74
80246;BMP280;69558;39.208;-77.226;2023-10-13T10:05:00;99996.50;;;23.75
80246;BMP280;69558;39.208;-77.226;2023-10-13T10:07:54;100006.38;;;23.79
80246;BMP280;69558;39.208;-77.226;2023-10-13T10:10:22;100002.94;;;23.79
80246;BMP280;69558;39.208;-77.226;2023-10-13T10:12:57;99990.75;;;23.78
80246;BMP280;69558;39.208;-77.226;2023-10-13T10:15:34;100004.41;;;23.86
80246;BMP280;69558;39.208;-77.226;2023-10-13T10:18:02;100016.97;;;23.91
80246;BMP280;69558;39.208;-77.226;2023-10-13T10:20:30;100017.31;;;23.95
80246;BMP280;69558;39.208;-77.226;2023-10-13T10:23:28;100030.47;;;24.01
80246;BMP280;69558;39.208;-77.226;2023-10-13T10:26:12;100025.72;;;24.03
80246;BMP280;69558;39.208;-77.226;2023-10-13T10:28:43;100031.94;;;24.09
80246;BMP280;69558;39.208;-77.226;2023-10-13T10:31:13;100025.47;;;24.16
80246;BMP280;69558;39.208;-77.226;2023-10-13T10:33:45;100021.88;;;24.22
80246;BMP280;69558;39.208;-77.226;2023-10-13T10:36:29;100028.34;;;24.26
80246;BMP280;69558;39.208;-77.226;2023-10-13T10:38:58;100024.66;;;24.27
80246;BMP280;69558;39.208;-77.226;2023-10-13T10:41:30;100033.50;;;24.33
80246;BMP280;69558;39.208;-77.226;2023-10-13T10:44:12;100039.41;;;24.35
80246;BMP280;69558;39.208;-77.226;2023-10-13T10:46:42;100041.44;;;24.33
80246;BMP280;69558;39.208;-77.226;2023-10-13T10:49:19;100055.03;;;24.37
80246;BMP280;69558;39.208;-77.226;2023-10-13T10:52:00;100056.66;;;24.38
80246;BMP280;69558;39.208;-77.226;2023-10-13T10:54:27;100046.88;;;24.38
80246;BMP280;69558;39.208;-77.226;2023-10-13T10:56:58;100067.25;;;24.38
80246;BMP280;69558;39.208;-77.226;2023-10-13T10:59:39;100068.00;;;24.21
80246;BMP280;69558;39.208;-77.226;2023-10-13T11:02:11;100074.91;;;23.99
80246;BMP280;69558;39.208;-77.226;2023-10-13T11:04:41;100068.13;;;23.80
80246;BMP280;69558;39.208;-77.226;2023-10-13T11:07:25;100062.13;;;23.73
80246;BMP280;69558;39.208;-77.226;2023-10-13T11:09:53;100052.94;;;23.64
80246;BMP280;69558;39.208;-77.226;2023-10-13T11:12:30;100072.38;;;23.69
80246;BMP280;69558;39.208;-77.226;2023-10-13T11:15:08;100066.41;;;23.74
80246;BMP280;69558;39.208;-77.226;2023-10-13T11:18:01;100077.00;;;23.74
80246;BMP280;69558;39.208;-77.226;2023-10-13T11:20:30;100091.72;;;23.81
80246;BMP280;69558;39.208;-77.226;2023-10-13T11:23:14;100088.38;;;23.86
80246;BMP280;69558;39.208;-77.226;2023-10-13T11:25:41;100095.44;;;23.92
80246;BMP280;69558;39.208;-77.226;2023-10-13T11:28:17;100102.44;;;23.98
80246;BMP280;69558;39.208;-77.226;2023-10-13T11:30:47;100098.41;;;23.96
80246;BMP280;69558;39.208;-77.226;2023-10-13T11:33:17;100115.03;;;24.03
80246;BMP280;69558;39.208;-77.226;2023-10-13T11:35:54;100125.72;;;24.08
80246;BMP280;69558;39.208;-77.226;2023-10-13T11:38:31;100120.00;;;24.11
80246;BMP280;69558;39.208;-77.226;2023-10-13T11:41:02;100120.53;;;24.13
80246;BMP280;69558;39.208;-77.226;2023-10-13T11:43:46;100135.97;;;24.27
80246;BMP280;69558;39.208;-77.226;2023-10-13T11:46:25;100145.09;;;24.32
80246;BMP280;69558;39.208;-77.226;2023-10-13T11:49:05;100136.34;;;24.31
80246;BMP280;69558;39.208;-77.226;2023-10-13T11:51:49;100153.03;;;24.43
80246;BMP280;69558;39.208;-77.226;2023-10-13T11:54:20;100147.38;;;24.51
80246;BMP280;69558;39.208;-77.226;2023-10-13T11:56:49;100145.53;;;24.52
80246;BMP280;69558;39.208;-77.226;2023-10-13T11:59:15;100156.34;;;24.62
80246;BMP280;69558;39.208;-77.226;2023-10-13T12:01:44;100145.78;;;24.39
80246;BMP280;69558;39.208;-77.226;2023-10-13T12:04:29;100162.63;;;24.21
80246;BMP280;69558;39.208;-77.226;2023-10-13T12:07:07;100168.47;;;24.00
80246;BMP280;69558;39.208;-77.226;2023-10-13T12:09:47;100175.25;;;23.84
80246;BMP280;69558;39.208;-77.226;2023-10-13T12:12:23;100171.19;;;23.81
80246;BMP280;69558;39.208;-77.226;2023-10-13T12:14:49;100178.91;;;23.83
80246;BMP280;69558;39.208;-77.226;2023-10-13T12:17:18;100169.56;;;23.80
80246;BMP280;69558;39.208;-77.226;2023-10-13T12:19:53;100179.84;;;23.88
80246;BMP280;69558;39.208;-77.226;2023-10-13T12:22:20;100179.53;;;23.97
80246;BMP280;69558;39.208;-77.226;2023-10-13T12:25:07;100178.25;;;23.99
80246;BMP280;69558;39.208;-77.226;2023-10-13T12:27:55;100167.41;;;24.01
80246;BMP280;69558;39.208;-77.226;2023-10-13T12:30:39;100163.63;;;24.08
80246;BMP280;69558;39.208;-77.226;2023-10-13T12:33:20;100176.75;;;24.15
80246;BMP280;69558;39.208;-77.226;2023-10-13T12:36:02;100173.69;;;24.18
80246;BMP280;69558;39.208;-77.226;2023-10-13T12:38:56;100176.69;;;24.21
80246;BMP280;69558;39.208;-77.226;2023-10-13T12:41:34;100172.16;;;24.22
80246;BMP280;69558;39.208;-77.226;2023-10-13T12:44:18;100196.69;;;24.29
80246;BMP280;69558;39.208;-77.226;2023-10-13T12:47:02;100193.03;;;24.30
80246;BMP280;69558;39.208;-77.226;2023-10-13T12:49:47;100205.59;;;24.35
80246;BMP280;69558;39.208;-77.226;2023-10-13T12:52:13;100209.41;;;24.39
80246;BMP280;69558;39.208;-77.226;2023-10-13T12:54:42;100204.09;;;24.39
80246;BMP280;69558;39.208;-77.226;2023-10-13T12:57:15;100208.50;;;24.45
80246;BMP280;69558;39.208;-77.226;2023-10-13T12:59:42;100210.56;;;24.43
80246;BMP280;69558;39.208;-77.226;2023-10-13T13:02:09;100217.34;;;24.50
80246;BMP280;69558;39.208;-77.226;2023-10-13T13:04:41;100224.06;;;24.41
80246;BMP280;69558;39.208;-77.226;2023-10-13T13:07:11;100223.78;;;24.19
80246;BMP280;69558;39.208;-77.226;2023-10-13T13:09:41;100229.63;;;23.98
80246;BMP280;69558;39.208;-77.226;2023-10-13T13:12:07;100243.09;;;23.85
80246;BMP280;69558;39.208;-77.226;2023-10-13T13:14:33;100239.91;;;23.76
80246;BMP280;69558;39.208;-77.226;2023-10-13T13:17:01;100242.38;;;23.78
80246;BMP280;69558;39.208;-77.226;2023-10-13T13:19:34;100248.84;;;23.82
80246;BMP280;69558;39.208;-77.226;2023-10-13T13:22:07;100239.47;;;23.79
80246;BMP280;69558;39.208;-77.226;2023-10-13T13:24:42;100256.91;;;23.87
80246;BMP280;69558;39.208;-77.226;2023-10-13T13:27:16;100257.50;;;23.89
80246;BMP280;69558;39.208;-77.226;2023-10-13T13:29:47;100254.97;;;23.94
80246;BMP280;69558;39.208;-77.226;2023-10-13T13:32:14;100248.19;;;23.98
80246;BMP280;69558;39.208;-77.226;2023-10-13T13:34:58;100245.66;;;24.03
80246;BMP280;69558;39.208;-77.226;2023-10-13T13:37:34;100236.00;;;24.09
80246;BMP280;69558;39.208;-77.226;2023-10-13T13:40:03;100233.69;;;24.12
80246;BMP280;69558;39.208;-77.226;2023-10-13T13:42:44;100233.03;;;24.17
80246;BMP280;69558;39.208;-77.226;2023-10-13T13:45:18;100225.19;;;24.22
80246;BMP280;69558;39.208;-77.226;2023-10-13T13:47:52;100229.00;;;24.26
80246;BMP280;69558;39.208;-77.226;2023-10-13T13:50:25;100230.47;;;24.34
80246;BMP280;69558;39.208;-77.226;2023-10-13T13:52:56;100236.41;;;24.36
80246;BMP280;69558;39.208;-77.226;2023-10-13T13:55:22;100219.88;;;24.34
80246;BMP280;69558;39.208;-77.226;2023-10-13T13:57:52;100243.78;;;24.45
80246;BMP280;69558;39.208;-77.226;2023-10-13T14:00:18;100245.94;;;24.48
80246;BMP280;69558;39.208;-77.226;2023-10-13T14:03:05;100250.69;;;24.46
80246;BMP280;69558;39.208;-77.226;2023-10-13T14:05:31;100250.91;;;24.45
80246;BMP280;69558;39.208;-77.226;2023-10-13T14:07:57;100254.25;;;24.52
80246;BMP280;69558;39.208;-77.226;2023-10-13T14:10:23;100263.81;;;24.41
80246;BMP280;69558;39.208;-77.226;2023-10-13T14:13:01;100256.22;;;24.21
80246;BMP280;69558;39.208;-77.226;2023-10-13T14:15:54;100256.03;;;23.93
80246;BMP280;69558;39.208;-77.226;2023-10-13T14:18:21;100241.25;;;23.55
80246;BMP280;69558;39.208;-77.226;2023-10-13T14:20:55;100261.66;;;23.67
80246;BMP280;69558;39.208;-77.226;2023-10-13T14:23:21;100256.72;;;23.70
80246;BMP280;69558;39.208;-77.226;2023-10-13T14:25:48;100260.41;;;23.69
80246;BMP280;69558;39.208;-77.226;2023-10-13T14:28:16;100262.75;;;23.77
80246;BMP280;69558;39.208;-77.226;2023-10-13T14:30:43;100263.69;;;23.83
80246;BMP280;69558;39.208;-77.226;2023-10-13T14:33:10;100251.63;;;23.87